Time,TemperatureF,DewpointF,PressureIn,WindDirection,WindDirectionDegrees,WindSpeedMPH,WindSpeedGustMPH,Humidity,HourlyPrecipIn,Conditions,Clouds,dailyrainin,SoftwareType,DateUTC
2013-07-29 00:00:00,72.0,69.5,29.99,N/A,-737280,0.0,-999.0,92,0.00,,,0.01,Wunderground v.1.15,2013-07-29 04:00:00,
2013-07-29 00:05:00,72.0,69.5,29.99,N/A,-737280,0.0,-999.0,92,0.00,,,0.01,Wunderground v.1.15,2013-07-29 04:05:00,
2013-07-29 00:10:00,72.0,69.5,29.99,N/A,-737280,0.0,-999.0,92,0.00,,,0.01,Wunderground v.1.15,2013-07-29 04:10:00,
2013-07-29 00:15:00,72.0,69.5,29.99,N/A,-737280,0.0,-999.0,92,0.00,,,0.01,Wunderground v.1.15,2013-07-29 04:15:00,
2013-07-29 00:20:00,72.0,69.5,29.99,N/A,-737280,0.0,-999.0,92,0.00,,,0.01,Wunderground v.1.15,2013-07-29 04:20:00,
2013-07-29 00:25:00,72.0,69.5,29.99,N/A,-737280,0.0,-999.0,92,0.00,,,0.01,Wunderground v.1.15,2013-07-29 04:25:00,
2013-07-29 00:30:00,72.0,69.5,29.99,N/A,-737280,0.0,-999.0,92,0.00,,,0.01,Wunderground v.1.15,2013-07-29 04:30:00,
2013-07-29 00:35:00,72.0,69.5,29.99,N/A,-737280,0.0,-999.0,92,0.00,,,0.01,Wunderground v.1.15,2013-07-29 04:35:00,
2013-07-29 00:40:00,72.0,69.5,29.99,N/A,-737280,0.0,-999.0,92,0.00,,,0.01,Wunderground v.1.15,2013-07-29 04:40:00,
2013-07-29 00:45:00,71.7,69.6,29.99,N/A,-737280,0.0,-999.0,93,0.00,,,0.01,Wunderground v.1.15,2013-07-29 04:45:00,
2013-07-29 00:50:00,71.7,69.6,29.99,N/A,-737280,0.0,-999.0,93,0.00,,,0.01,Wunderground v.1.15,2013-07-29 04:50:00,
2013-07-29 00:55:00,71.7,69.6,29.99,N/A,-737280,0.0,-999.0,93,0.00,,,0.01,Wunderground v.1.15,2013-07-29 04:55:00,
2013-07-29 01:00:00,71.7,69.6,29.99,N/A,-737280,0.0,-999.0,93,0.00,,,0.01,Wunderground v.1.15,2013-07-29 05:00:00,
2013-07-29 01:05:00,71.7,69.6,29.99,N/A,-737280,0.0,-999.0,93,0.00,,,0.01,Wunderground v.1.15,2013-07-29 05:05:00,
2013-07-29 01:10:00,71.7,69.6,29.99,N/A,-737280,0.0,-999.0,93,0.00,,,0.01,Wunderground v.1.15,2013-07-29 05:10:00,
2013-07-29 01:15:00,71.2,69.1,29.99,N/A,-737280,0.0,-999.0,93,0.00,,,0.01,Wunderground v.1.15,2013-07-29 05:15:00,
2013-07-29 01:20:00,71.2,69.1,29.99,N/A,-737280,0.0,-999.0,93,0.00,,,0.01,Wunderground v.1.15,2013-07-29 05:20:00,
2013-07-29 01:25:00,71.2,69.1,29.99,N/A,-737280,0.0,-999.0,93,0.00,,,0.01,Wunderground v.1.15,2013-07-29 05:25:00,
2013-07-29 01:30:00,71.2,69.1,29.99,N/A,-737280,0.0,-999.0,93,0.00,,,0.01,Wunderground v.1.15,2013-07-29 05:30:00,
2013-07-29 01:35:00,71.2,69.1,29.99,N/A,-737280,0.0,-999.0,93,0.00,,,0.01,Wunderground v.1.15,2013-07-29 05:35:00,
2013-07-29 01:40:00,71.2,69.1,29.99,N/A,-737280,0.0,-999.0,93,0.00,,,0.01,Wunderground v.1.15,2013-07-29 05:40:00,
2013-07-29 01:45:00,71.1,69.3,29.99,N/A,-737280,0.0,-999.0,94,0.00,,,0.01,Wunderground v.1.15,2013-07-29 05:45:00,
2013-07-29 01:50:00,71.1,69.3,29.99,N/A,-737280,0.0,-999.0,94,0.00,,,0.01,Wunderground v.1.15,2013-07-29 05:50:00,
2013-07-29 01:55:00,71.1,69.3,29.99,N/A,-737280,0.0,-999.0,94,0.00,,,0.01,Wunderground v.1.15,2013-07-29 05:55:00,
2013-07-29 02:00:00,71.1,69.3,29.99,N/A,-737280,0.0,-999.0,94,0.00,,,0.01,Wunderground v.1.15,2013-07-29 06:00:00,
2013-07-29 02:05:00,71.1,69.3,29.99,N/A,-737280,0.0,-999.0,94,0.00,,,0.01,Wunderground v.1.15,2013-07-29 06:05:00,
2013-07-29 02:10:00,71.1,69.3,29.99,N/A,-737280,0.0,-999.0,94,0.00,,,0.01,Wunderground v.1.15,2013-07-29 06:10:00,
2013-07-29 02:15:00,71.2,69.4,29.99,N/A,-737280,0.0,-999.0,94,0.00,,,0.01,Wunderground v.1.15,2013-07-29 06:15:00,
2013-07-29 02:20:00,71.2,69.4,29.99,N/A,-737280,0.0,-999.0,94,0.00,,,0.01,Wunderground v.1.15,2013-07-29 06:20:00,
2013-07-29 02:25:00,71.2,69.4,29.99,N/A,-737280,0.0,-999.0,94,0.00,,,0.01,Wunderground v.1.15,2013-07-29 06:25:00,
2013-07-29 02:30:00,71.2,69.4,29.99,N/A,-737280,0.0,-999.0,94,0.00,,,0.01,Wunderground v.1.15,2013-07-29 06:30:00,
2013-07-29 02:35:00,71.2,69.4,29.99,N/A,-737280,0.0,-999.0,94,0.00,,,0.01,Wunderground v.1.15,2013-07-29 06:35:00,
2013-07-29 02:40:00,71.2,69.4,29.99,N/A,-737280,0.0,-999.0,94,0.00,,,0.01,Wunderground v.1.15,2013-07-29 06:40:00,
2013-07-29 02:45:00,71.2,69.4,29.99,N/A,-737280,0.0,-999.0,94,0.00,,,0.01,Wunderground v.1.15,2013-07-29 06:45:00,
2013-07-29 02:50:00,71.2,69.4,29.99,N/A,-737280,0.0,-999.0,94,0.00,,,0.01,Wunderground v.1.15,2013-07-29 06:50:00,
2013-07-29 02:55:00,71.2,69.4,29.99,N/A,-737280,0.0,-999.0,94,0.00,,,0.01,Wunderground v.1.15,2013-07-29 06:55:00,
2013-07-29 03:00:00,71.2,69.4,29.99,N/A,-737280,0.0,-999.0,94,0.00,,,0.01,Wunderground v.1.15,2013-07-29 07:00:00,
2013-07-29 03:05:00,71.2,69.4,29.99,N/A,-737280,0.0,-999.0,94,0.00,,,0.01,Wunderground v.1.15,2013-07-29 07:05:00,
2013-07-29 03:10:00,71.2,69.4,29.99,N/A,-737280,0.0,-999.0,94,0.00,,,0.01,Wunderground v.1.15,2013-07-29 07:10:00,
2013-07-29 03:15:00,70.9,69.1,29.99,N/A,-737280,0.0,-999.0,94,0.00,,,0.01,Wunderground v.1.15,2013-07-29 07:15:00,
2013-07-29 03:20:00,70.9,69.1,29.99,N/A,-737280,0.0,-999.0,94,0.00,,,0.01,Wunderground v.1.15,2013-07-29 07:20:00,
2013-07-29 03:25:00,70.9,69.1,29.99,N/A,-737280,0.0,-999.0,94,0.00,,,0.01,Wunderground v.1.15,2013-07-29 07:25:00,
2013-07-29 03:30:00,70.9,69.1,29.99,N/A,-737280,0.0,-999.0,94,0.00,,,0.01,Wunderground v.1.15,2013-07-29 07:30:00,
2013-07-29 03:35:00,70.9,69.1,29.99,N/A,-737280,0.0,-999.0,94,0.00,,,0.01,Wunderground v.1.15,2013-07-29 07:35:00,
2013-07-29 03:40:00,70.9,69.1,29.99,N/A,-737280,0.0,-999.0,94,0.00,,,0.01,Wunderground v.1.15,2013-07-29 07:40:00,
2013-07-29 03:45:00,70.7,68.9,29.99,N/A,-737280,0.0,-999.0,94,0.00,,,0.01,Wunderground v.1.15,2013-07-29 07:45:00,
2013-07-29 03:50:00,70.7,68.9,29.99,N/A,-737280,0.0,-999.0,94,0.00,,,0.01,Wunderground v.1.15,2013-07-29 07:50:00,
2013-07-29 03:55:00,70.7,68.9,29.99,N/A,-737280,0.0,-999.0,94,0.00,,,0.01,Wunderground v.1.15,2013-07-29 07:55:00,
2013-07-29 04:00:00,70.7,68.9,29.99,N/A,-737280,0.0,-999.0,94,0.00,,,0.01,Wunderground v.1.15,2013-07-29 08:00:00,
2013-07-29 04:05:00,70.7,68.9,29.99,N/A,-737280,0.0,-999.0,94,0.00,,,0.01,Wunderground v.1.15,2013-07-29 08:05:00,
2013-07-29 04:10:00,70.7,68.9,29.99,N/A,-737280,0.0,-999.0,94,0.00,,,0.01,Wunderground v.1.15,2013-07-29 08:10:00,
2013-07-29 04:15:00,70.5,69.0,30.00,N/A,-737280,0.0,-999.0,95,0.00,,,0.01,Wunderground v.1.15,2013-07-29 08:15:00,
2013-07-29 04:20:00,70.5,69.0,30.00,N/A,-737280,0.0,-999.0,95,0.00,,,0.01,Wunderground v.1.15,2013-07-29 08:20:00,
2013-07-29 04:25:00,70.5,69.0,30.00,N/A,-737280,0.0,-999.0,95,0.00,,,0.01,Wunderground v.1.15,2013-07-29 08:25:00,
2013-07-29 04:30:00,70.5,69.0,30.00,N/A,-737280,0.0,-999.0,95,0.00,,,0.01,Wunderground v.1.15,2013-07-29 08:30:00,
2013-07-29 04:35:00,70.5,69.0,30.00,N/A,-737280,0.0,-999.0,95,0.00,,,0.01,Wunderground v.1.15,2013-07-29 08:35:00,
2013-07-29 04:40:00,70.5,69.0,30.00,N/A,-737280,0.0,-999.0,95,0.00,,,0.01,Wunderground v.1.15,2013-07-29 08:40:00,
2013-07-29 04:45:00,70.0,68.2,30.01,N/A,-737280,0.0,-999.0,94,0.00,,,0.01,Wunderground v.1.15,2013-07-29 08:45:00,
2013-07-29 04:50:00,70.0,68.2,30.01,N/A,-737280,0.0,-999.0,94,0.00,,,0.01,Wunderground v.1.15,2013-07-29 08:50:00,
2013-07-29 04:55:00,70.0,68.2,30.01,N/A,-737280,0.0,-999.0,94,0.00,,,0.01,Wunderground v.1.15,2013-07-29 08:55:00,
2013-07-29 05:00:00,70.0,68.2,30.01,N/A,-737280,0.0,-999.0,94,0.00,,,0.01,Wunderground v.1.15,2013-07-29 09:00:00,
2013-07-29 05:05:00,70.0,68.2,30.01,N/A,-737280,0.0,-999.0,94,0.00,,,0.01,Wunderground v.1.15,2013-07-29 09:05:00,
2013-07-29 05:10:00,70.0,68.2,30.01,N/A,-737280,0.0,-999.0,94,0.00,,,0.01,Wunderground v.1.15,2013-07-29 09:10:00,
2013-07-29 05:15:00,69.3,67.5,30.02,N/A,-737280,0.0,-999.0,94,0.01,,,0.01,Wunderground v.1.15,2013-07-29 09:15:00,
2013-07-29 05:20:00,69.3,67.5,30.02,N/A,-737280,0.0,-999.0,94,0.01,,,0.01,Wunderground v.1.15,2013-07-29 09:20:00,
2013-07-29 05:25:00,69.3,67.5,30.02,N/A,-737280,0.0,-999.0,94,0.01,,,0.01,Wunderground v.1.15,2013-07-29 09:25:00,
2013-07-29 05:30:00,69.3,67.5,30.02,N/A,-737280,0.0,-999.0,94,0.01,,,0.01,Wunderground v.1.15,2013-07-29 09:30:00,
2013-07-29 05:35:00,69.3,67.5,30.02,N/A,-737280,0.0,-999.0,94,0.01,,,0.01,Wunderground v.1.15,2013-07-29 09:35:00,
2013-07-29 05:40:00,69.3,67.5,30.02,N/A,-737280,0.0,-999.0,94,0.01,,,0.01,Wunderground v.1.15,2013-07-29 09:40:00,
2013-07-29 05:45:00,68.9,67.1,30.03,N/A,-737280,0.0,-999.0,94,0.01,,,0.01,Wunderground v.1.15,2013-07-29 09:45:00,
2013-07-29 05:50:00,68.9,67.1,30.03,N/A,-737280,0.0,-999.0,94,0.01,,,0.01,Wunderground v.1.15,2013-07-29 09:50:00,
2013-07-29 05:55:00,68.9,67.1,30.03,N/A,-737280,0.0,-999.0,94,0.01,,,0.01,Wunderground v.1.15,2013-07-29 09:55:00,
2013-07-29 06:00:00,68.9,67.1,30.03,N/A,-737280,0.0,-999.0,94,0.01,,,0.01,Wunderground v.1.15,2013-07-29 10:00:00,
2013-07-29 06:05:00,68.9,67.1,30.03,N/A,-737280,0.0,-999.0,94,0.01,,,0.01,Wunderground v.1.15,2013-07-29 10:05:00,
2013-07-29 06:10:00,68.9,67.1,30.03,N/A,-737280,0.0,-999.0,94,0.01,,,0.01,Wunderground v.1.15,2013-07-29 10:10:00,
2013-07-29 06:15:00,68.3,66.5,30.04,N/A,-737280,0.0,-999.0,94,0.00,,,0.01,Wunderground v.1.15,2013-07-29 10:15:00,
2013-07-29 06:20:00,68.3,66.5,30.04,N/A,-737280,0.0,-999.0,94,0.00,,,0.01,Wunderground v.1.15,2013-07-29 10:20:00,
2013-07-29 06:25:00,68.3,66.5,30.04,N/A,-737280,0.0,-999.0,94,0.00,,,0.01,Wunderground v.1.15,2013-07-29 10:25:00,
2013-07-29 06:30:00,68.3,66.5,30.04,N/A,-737280,0.0,-999.0,94,0.00,,,0.01,Wunderground v.1.15,2013-07-29 10:30:00,
2013-07-29 06:35:00,68.3,66.5,30.04,N/A,-737280,0.0,-999.0,94,0.00,,,0.01,Wunderground v.1.15,2013-07-29 10:35:00,
2013-07-29 06:40:00,68.3,66.5,30.04,N/A,-737280,0.0,-999.0,94,0.00,,,0.01,Wunderground v.1.15,2013-07-29 10:40:00,
2013-07-29 06:45:00,67.7,65.6,30.05,N/A,-737280,0.0,-999.0,93,0.00,,,0.01,Wunderground v.1.15,2013-07-29 10:45:00,
2013-07-29 06:50:00,67.7,65.6,30.05,N/A,-737280,0.0,-999.0,93,0.00,,,0.01,Wunderground v.1.15,2013-07-29 10:50:00,
2013-07-29 06:55:00,67.7,65.6,30.05,N/A,-737280,0.0,-999.0,93,0.00,,,0.01,Wunderground v.1.15,2013-07-29 10:55:00,
2013-07-29 07:00:00,67.7,65.6,30.05,N/A,-737280,0.0,-999.0,93,0.00,,,0.01,Wunderground v.1.15,2013-07-29 11:00:00,
2013-07-29 07:05:00,67.7,65.6,30.05,N/A,-737280,0.0,-999.0,93,0.00,,,0.01,Wunderground v.1.15,2013-07-29 11:05:00,
2013-07-29 07:10:00,67.7,65.6,30.05,N/A,-737280,0.0,-999.0,93,0.00,,,0.01,Wunderground v.1.15,2013-07-29 11:10:00,
2013-07-29 07:15:00,67.7,65.3,30.06,N/A,-737280,0.0,-999.0,92,0.00,,,0.01,Wunderground v.1.15,2013-07-29 11:15:00,
2013-07-29 07:20:00,67.7,65.3,30.06,N/A,-737280,0.0,-999.0,92,0.00,,,0.01,Wunderground v.1.15,2013-07-29 11:20:00,
2013-07-29 07:25:00,67.7,65.3,30.06,N/A,-737280,0.0,-999.0,92,0.00,,,0.01,Wunderground v.1.15,2013-07-29 11:25:00,
2013-07-29 07:30:00,67.7,65.3,30.06,N/A,-737280,0.0,-999.0,92,0.00,,,0.01,Wunderground v.1.15,2013-07-29 11:30:00,
2013-07-29 07:35:00,67.7,65.3,30.06,N/A,-737280,0.0,-999.0,92,0.00,,,0.01,Wunderground v.1.15,2013-07-29 11:35:00,
2013-07-29 07:40:00,67.7,65.3,30.06,N/A,-737280,0.0,-999.0,92,0.00,,,0.01,Wunderground v.1.15,2013-07-29 11:40:00,
2013-07-29 07:45:00,68.5,65.8,30.06,N/A,-737280,0.0,-999.0,91,0.00,,,0.01,Wunderground v.1.15,2013-07-29 11:45:00,
2013-07-29 07:50:00,68.5,65.8,30.06,N/A,-737280,0.0,-999.0,91,0.00,,,0.01,Wunderground v.1.15,2013-07-29 11:50:00,
2013-07-29 07:55:00,68.5,65.8,30.06,N/A,-737280,0.0,-999.0,91,0.00,,,0.01,Wunderground v.1.15,2013-07-29 11:55:00,
2013-07-29 08:00:00,68.5,65.8,30.06,N/A,-737280,0.0,-999.0,91,0.00,,,0.01,Wunderground v.1.15,2013-07-29 12:00:00,
2013-07-29 08:05:00,68.5,65.8,30.06,N/A,-737280,0.0,-999.0,91,0.00,,,0.01,Wunderground v.1.15,2013-07-29 12:05:00,
2013-07-29 08:10:00,68.5,65.8,30.06,N/A,-737280,0.0,-999.0,91,0.00,,,0.01,Wunderground v.1.15,2013-07-29 12:10:00,
2013-07-29 08:15:00,71.2,67.5,30.08,N/A,-737280,0.0,-999.0,88,0.00,,,0.01,Wunderground v.1.15,2013-07-29 12:15:00,
2013-07-29 08:20:00,71.2,67.5,30.08,N/A,-737280,0.0,-999.0,88,0.00,,,0.01,Wunderground v.1.15,2013-07-29 12:20:00,
2013-07-29 08:25:00,71.2,67.5,30.08,N/A,-737280,0.0,-999.0,88,0.00,,,0.01,Wunderground v.1.15,2013-07-29 12:25:00,
2013-07-29 08:30:00,71.2,67.5,30.08,N/A,-737280,0.0,-999.0,88,0.00,,,0.01,Wunderground v.1.15,2013-07-29 12:30:00,
2013-07-29 08:35:00,71.2,67.5,30.08,N/A,-737280,0.0,-999.0,88,0.00,,,0.01,Wunderground v.1.15,2013-07-29 12:35:00,
2013-07-29 08:40:00,71.2,67.5,30.08,N/A,-737280,0.0,-999.0,88,0.00,,,0.01,Wunderground v.1.15,2013-07-29 12:40:00,
2013-07-29 08:45:00,72.8,67.7,30.08,East,90,0.0,-999.0,84,0.00,,,0.01,Wunderground v.1.15,2013-07-29 12:45:00,
2013-07-29 08:50:00,72.8,67.7,30.08,East,90,0.0,-999.0,84,0.00,,,0.01,Wunderground v.1.15,2013-07-29 12:50:00,
2013-07-29 08:55:00,72.8,67.7,30.08,East,90,0.0,-999.0,84,0.00,,,0.01,Wunderground v.1.15,2013-07-29 12:55:00,
2013-07-29 09:00:00,72.8,67.7,30.08,East,90,0.0,-999.0,84,0.00,,,0.01,Wunderground v.1.15,2013-07-29 13:00:00,
2013-07-29 09:05:00,72.8,67.7,30.08,East,90,0.0,-999.0,84,0.00,,,0.01,Wunderground v.1.15,2013-07-29 13:05:00,
2013-07-29 09:10:00,72.8,67.7,30.08,East,90,0.0,-999.0,84,0.00,,,0.01,Wunderground v.1.15,2013-07-29 13:10:00,
2013-07-29 09:15:00,73.2,68.1,30.08,NNE,23,0.0,-999.0,84,0.00,,,0.01,Wunderground v.1.15,2013-07-29 13:15:00,
2013-07-29 09:20:00,73.2,68.1,30.08,NNE,23,0.0,-999.0,84,0.00,,,0.01,Wunderground v.1.15,2013-07-29 13:20:00,
2013-07-29 09:25:00,73.2,68.1,30.08,NNE,23,0.0,-999.0,84,0.00,,,0.01,Wunderground v.1.15,2013-07-29 13:25:00,
2013-07-29 09:30:00,73.2,68.1,30.08,NNE,23,0.0,-999.0,84,0.00,,,0.01,Wunderground v.1.15,2013-07-29 13:30:00,
2013-07-29 09:35:00,73.2,68.1,30.08,NNE,23,0.0,-999.0,84,0.00,,,0.01,Wunderground v.1.15,2013-07-29 13:35:00,
2013-07-29 09:40:00,73.2,68.1,30.08,NNE,23,0.0,-999.0,84,0.00,,,0.01,Wunderground v.1.15,2013-07-29 13:40:00,
2013-07-29 09:45:00,75.0,68.0,30.08,SE,135,0.0,-999.0,79,0.00,,,0.01,Wunderground v.1.15,2013-07-29 13:45:00,
2013-07-29 09:50:00,75.0,68.0,30.08,SE,135,0.0,-999.0,79,0.00,,,0.01,Wunderground v.1.15,2013-07-29 13:50:00,
2013-07-29 09:55:00,75.0,68.0,30.08,SE,135,0.0,-999.0,79,0.00,,,0.01,Wunderground v.1.15,2013-07-29 13:55:00,
2013-07-29 10:00:00,75.0,68.0,30.08,SE,135,0.0,-999.0,79,0.00,,,0.01,Wunderground v.1.15,2013-07-29 14:00:00,
2013-07-29 10:05:00,75.0,68.0,30.08,SE,135,0.0,-999.0,79,0.00,,,0.01,Wunderground v.1.15,2013-07-29 14:05:00,
2013-07-29 10:10:00,75.0,68.0,30.08,SE,135,0.0,-999.0,79,0.00,,,0.01,Wunderground v.1.15,2013-07-29 14:10:00,
2013-07-29 10:15:00,77.1,70.5,30.09,NE,45,0.0,-999.0,80,0.00,,,0.01,Wunderground v.1.15,2013-07-29 14:15:00,
2013-07-29 10:20:00,77.1,70.5,30.09,NE,45,0.0,-999.0,80,0.00,,,0.01,Wunderground v.1.15,2013-07-29 14:20:00,
2013-07-29 10:25:00,77.1,70.5,30.09,NE,45,0.0,-999.0,80,0.00,,,0.01,Wunderground v.1.15,2013-07-29 14:25:00,
2013-07-29 10:30:00,77.1,70.5,30.09,NE,45,0.0,-999.0,80,0.00,,,0.01,Wunderground v.1.15,2013-07-29 14:30:00,
2013-07-29 10:35:00,77.1,70.5,30.09,NE,45,0.0,-999.0,80,0.00,,,0.01,Wunderground v.1.15,2013-07-29 14:35:00,
2013-07-29 10:40:00,77.1,70.5,30.09,NE,45,0.0,-999.0,80,0.00,,,0.01,Wunderground v.1.15,2013-07-29 14:40:00,
2013-07-29 10:45:00,79.5,70.5,30.10,SSE,158,1.0,-999.0,74,0.00,,,0.01,Wunderground v.1.15,2013-07-29 14:45:00,
2013-07-29 10:50:00,79.5,70.5,30.10,SSE,158,1.0,-999.0,74,0.00,,,0.01,Wunderground v.1.15,2013-07-29 14:50:00,
2013-07-29 10:55:00,79.5,70.5,30.10,SSE,158,1.0,-999.0,74,0.00,,,0.01,Wunderground v.1.15,2013-07-29 14:55:00,
2013-07-29 11:00:00,79.5,70.5,30.10,SSE,158,1.0,-999.0,74,0.00,,,0.01,Wunderground v.1.15,2013-07-29 15:00:00,
2013-07-29 11:05:00,79.5,70.5,30.10,SSE,158,1.0,-999.0,74,0.00,,,0.01,Wunderground v.1.15,2013-07-29 15:05:00,
2013-07-29 11:10:00,79.5,70.5,30.10,SSE,158,1.0,-999.0,74,0.00,,,0.01,Wunderground v.1.15,2013-07-29 15:10:00,
2013-07-29 11:15:00,81.2,70.1,30.10,NNE,23,1.0,-999.0,69,0.00,,,0.01,Wunderground v.1.15,2013-07-29 15:15:00,
2013-07-29 11:20:00,81.2,70.1,30.10,NNE,23,1.0,-999.0,69,0.00,,,0.01,Wunderground v.1.15,2013-07-29 15:20:00,
2013-07-29 11:25:00,81.2,70.1,30.10,NNE,23,1.0,-999.0,69,0.00,,,0.01,Wunderground v.1.15,2013-07-29 15:25:00,
2013-07-29 11:30:00,81.2,70.1,30.10,NNE,23,1.0,-999.0,69,0.00,,,0.01,Wunderground v.1.15,2013-07-29 15:30:00,
2013-07-29 11:35:00,81.2,70.1,30.10,NNE,23,1.0,-999.0,69,0.00,,,0.01,Wunderground v.1.15,2013-07-29 15:35:00,
2013-07-29 11:40:00,81.2,70.1,30.10,NNE,23,1.0,-999.0,69,0.00,,,0.01,Wunderground v.1.15,2013-07-29 15:40:00,
2013-07-29 11:45:00,82.5,70.9,30.10,ENE,68,1.0,-999.0,68,0.00,,,0.01,Wunderground v.1.15,2013-07-29 15:45:00,
2013-07-29 11:50:00,82.5,70.9,30.10,ENE,68,1.0,-999.0,68,0.00,,,0.01,Wunderground v.1.15,2013-07-29 15:50:00,
2013-07-29 11:55:00,82.5,70.9,30.10,ENE,68,1.0,-999.0,68,0.00,,,0.01,Wunderground v.1.15,2013-07-29 15:55:00,
2013-07-29 12:00:00,82.5,70.9,30.10,ENE,68,1.0,-999.0,68,0.00,,,0.01,Wunderground v.1.15,2013-07-29 16:00:00,
2013-07-29 12:05:00,82.5,70.9,30.10,ENE,68,1.0,-999.0,68,0.00,,,0.01,Wunderground v.1.15,2013-07-29 16:05:00,
2013-07-29 12:10:00,82.5,70.9,30.10,ENE,68,1.0,-999.0,68,0.00,,,0.01,Wunderground v.1.15,2013-07-29 16:10:00,
2013-07-29 12:15:00,83.6,70.1,30.10,NE,45,1.0,-999.0,64,0.00,,,0.01,Wunderground v.1.15,2013-07-29 16:15:00,
2013-07-29 12:20:00,83.6,70.1,30.10,NE,45,1.0,-999.0,64,0.00,,,0.01,Wunderground v.1.15,2013-07-29 16:20:00,
2013-07-29 12:25:00,83.6,70.1,30.10,NE,45,1.0,-999.0,64,0.00,,,0.01,Wunderground v.1.15,2013-07-29 16:25:00,
2013-07-29 12:30:00,83.6,70.1,30.10,NE,45,1.0,-999.0,64,0.00,,,0.01,Wunderground v.1.15,2013-07-29 16:30:00,
2013-07-29 12:35:00,83.6,70.1,30.10,NE,45,1.0,-999.0,64,0.00,,,0.01,Wunderground v.1.15,2013-07-29 16:35:00,
2013-07-29 12:40:00,83.6,70.1,30.10,NE,45,1.0,-999.0,64,0.00,,,0.01,Wunderground v.1.15,2013-07-29 16:40:00,
2013-07-29 12:45:00,83.0,70.0,30.09,WSW,248,1.0,-999.0,65,0.00,,,0.01,Wunderground v.1.15,2013-07-29 16:45:00,
2013-07-29 12:50:00,83.0,70.0,30.09,WSW,248,1.0,-999.0,65,0.00,,,0.01,Wunderground v.1.15,2013-07-29 16:50:00,
2013-07-29 12:55:00,83.0,70.0,30.09,WSW,248,1.0,-999.0,65,0.00,,,0.01,Wunderground v.1.15,2013-07-29 16:55:00,
2013-07-29 13:00:00,83.0,70.0,30.09,WSW,248,1.0,-999.0,65,0.00,,,0.01,Wunderground v.1.15,2013-07-29 17:00:00,
2013-07-29 13:05:00,83.0,70.0,30.09,WSW,248,1.0,-999.0,65,0.00,,,0.01,Wunderground v.1.15,2013-07-29 17:05:00,
2013-07-29 13:10:00,83.0,70.0,30.09,WSW,248,1.0,-999.0,65,0.00,,,0.01,Wunderground v.1.15,2013-07-29 17:10:00,
2013-07-29 13:15:00,83.0,69.6,30.09,WSW,248,1.0,-999.0,64,0.00,,,0.01,Wunderground v.1.15,2013-07-29 17:15:00,
2013-07-29 13:20:00,83.0,69.6,30.09,WSW,248,1.0,-999.0,64,0.00,,,0.01,Wunderground v.1.15,2013-07-29 17:20:00,
2013-07-29 13:25:00,83.0,69.6,30.09,WSW,248,1.0,-999.0,64,0.00,,,0.01,Wunderground v.1.15,2013-07-29 17:25:00,
2013-07-29 13:30:00,83.0,69.6,30.09,WSW,248,1.0,-999.0,64,0.00,,,0.01,Wunderground v.1.15,2013-07-29 17:30:00,
2013-07-29 13:35:00,83.0,69.6,30.09,WSW,248,1.0,-999.0,64,0.00,,,0.01,Wunderground v.1.15,2013-07-29 17:35:00,
2013-07-29 13:40:00,83.0,69.6,30.09,WSW,248,1.0,-999.0,64,0.00,,,0.01,Wunderground v.1.15,2013-07-29 17:40:00,
2013-07-29 13:45:00,84.0,68.6,30.09,NE,45,1.0,-999.0,60,0.00,,,0.01,Wunderground v.1.15,2013-07-29 17:45:00,
2013-07-29 13:50:00,84.0,68.6,30.09,NE,45,1.0,-999.0,60,0.00,,,0.01,Wunderground v.1.15,2013-07-29 17:50:00,
2013-07-29 13:55:00,84.0,68.6,30.09,NE,45,1.0,-999.0,60,0.00,,,0.01,Wunderground v.1.15,2013-07-29 17:55:00,
2013-07-29 14:00:00,84.0,68.6,30.09,NE,45,1.0,-999.0,60,0.00,,,0.01,Wunderground v.1.15,2013-07-29 18:00:00,
2013-07-29 14:05:00,84.0,68.6,30.09,NE,45,1.0,-999.0,60,0.00,,,0.01,Wunderground v.1.15,2013-07-29 18:05:00,
2013-07-29 14:10:00,84.0,68.6,30.09,NE,45,1.0,-999.0,60,0.00,,,0.01,Wunderground v.1.15,2013-07-29 18:10:00,
2013-07-29 14:15:00,84.7,69.3,30.08,NE,45,1.0,-999.0,60,0.00,,,0.01,Wunderground v.1.15,2013-07-29 18:15:00,
2013-07-29 14:20:00,84.7,69.3,30.08,NE,45,1.0,-999.0,60,0.00,,,0.01,Wunderground v.1.15,2013-07-29 18:20:00,
2013-07-29 14:25:00,84.7,69.3,30.08,NE,45,1.0,-999.0,60,0.00,,,0.01,Wunderground v.1.15,2013-07-29 18:25:00,
2013-07-29 14:30:00,84.7,69.3,30.08,NE,45,1.0,-999.0,60,0.00,,,0.01,Wunderground v.1.15,2013-07-29 18:30:00,
2013-07-29 14:35:00,84.7,69.3,30.08,NE,45,1.0,-999.0,60,0.00,,,0.01,Wunderground v.1.15,2013-07-29 18:35:00,
2013-07-29 14:40:00,84.7,69.3,30.08,NE,45,1.0,-999.0,60,0.00,,,0.01,Wunderground v.1.15,2013-07-29 18:40:00,
2013-07-29 14:45:00,84.1,70.6,30.07,West,270,1.0,-999.0,64,0.00,,,0.01,Wunderground v.1.15,2013-07-29 18:45:00,
2013-07-29 14:50:00,84.1,70.6,30.07,West,270,1.0,-999.0,64,0.00,,,0.01,Wunderground v.1.15,2013-07-29 18:50:00,
2013-07-29 14:55:00,84.1,70.6,30.07,West,270,1.0,-999.0,64,0.00,,,0.01,Wunderground v.1.15,2013-07-29 18:55:00,
2013-07-29 15:00:00,84.1,70.6,30.07,West,270,1.0,-999.0,64,0.00,,,0.01,Wunderground v.1.15,2013-07-29 19:00:00,
2013-07-29 15:05:00,84.1,70.6,30.07,West,270,1.0,-999.0,64,0.00,,,0.01,Wunderground v.1.15,2013-07-29 19:05:00,
2013-07-29 15:10:00,84.1,70.6,30.07,West,270,1.0,-999.0,64,0.00,,,0.01,Wunderground v.1.15,2013-07-29 19:10:00,
2013-07-29 15:15:00,85.0,71.5,30.06,WSW,248,1.0,-999.0,64,0.00,,,0.01,Wunderground v.1.15,2013-07-29 19:15:00,
2013-07-29 15:20:00,85.0,71.5,30.06,WSW,248,1.0,-999.0,64,0.00,,,0.01,Wunderground v.1.15,2013-07-29 19:20:00,
2013-07-29 15:25:00,85.0,71.5,30.06,WSW,248,1.0,-999.0,64,0.00,,,0.01,Wunderground v.1.15,2013-07-29 19:25:00,
2013-07-29 15:30:00,85.0,71.5,30.06,WSW,248,1.0,-999.0,64,0.00,,,0.01,Wunderground v.1.15,2013-07-29 19:30:00,
2013-07-29 15:35:00,85.0,71.5,30.06,WSW,248,1.0,-999.0,64,0.00,,,0.01,Wunderground v.1.15,2013-07-29 19:35:00,
2013-07-29 15:40:00,85.0,71.5,30.06,WSW,248,1.0,-999.0,64,0.00,,,0.01,Wunderground v.1.15,2013-07-29 19:40:00,
2013-07-29 15:45:00,85.5,68.5,30.05,West,270,0.0,-999.0,57,0.00,,,0.01,Wunderground v.1.15,2013-07-29 19:45:00,
2013-07-29 15:50:00,85.5,68.5,30.05,West,270,0.0,-999.0,57,0.00,,,0.01,Wunderground v.1.15,2013-07-29 19:50:00,
2013-07-29 15:55:00,85.5,68.5,30.05,West,270,0.0,-999.0,57,0.00,,,0.01,Wunderground v.1.15,2013-07-29 19:55:00,
2013-07-29 16:00:00,85.5,68.5,30.05,West,270,0.0,-999.0,57,0.00,,,0.01,Wunderground v.1.15,2013-07-29 20:00:00,
2013-07-29 16:05:00,85.5,68.5,30.05,West,270,0.0,-999.0,57,0.00,,,0.01,Wunderground v.1.15,2013-07-29 20:05:00,
2013-07-29 16:10:00,85.5,68.5,30.05,West,270,0.0,-999.0,57,0.00,,,0.01,Wunderground v.1.15,2013-07-29 20:10:00,
2013-07-29 16:15:00,86.9,70.8,30.06,SW,225,1.0,-999.0,59,0.00,,,0.01,Wunderground v.1.15,2013-07-29 20:15:00,
2013-07-29 16:20:00,86.9,70.8,30.06,SW,225,1.0,-999.0,59,0.00,,,0.01,Wunderground v.1.15,2013-07-29 20:20:00,
2013-07-29 16:25:00,86.9,70.8,30.06,SW,225,1.0,-999.0,59,0.00,,,0.01,Wunderground v.1.15,2013-07-29 20:25:00,
2013-07-29 16:30:00,86.9,70.8,30.06,SW,225,1.0,-999.0,59,0.00,,,0.01,Wunderground v.1.15,2013-07-29 20:30:00,
2013-07-29 16:35:00,86.9,70.8,30.06,SW,225,1.0,-999.0,59,0.00,,,0.01,Wunderground v.1.15,2013-07-29 20:35:00,
2013-07-29 16:40:00,86.9,70.8,30.06,SW,225,1.0,-999.0,59,0.00,,,0.01,Wunderground v.1.15,2013-07-29 20:40:00,
2013-07-29 16:45:00,87.8,68.0,30.06,ENE,68,0.0,-999.0,52,0.00,,,0.01,Wunderground v.1.15,2013-07-29 20:45:00,
2013-07-29 16:50:00,87.8,68.0,30.06,ENE,68,0.0,-999.0,52,0.00,,,0.01,Wunderground v.1.15,2013-07-29 20:50:00,
2013-07-29 16:55:00,87.8,68.0,30.06,ENE,68,0.0,-999.0,52,0.00,,,0.01,Wunderground v.1.15,2013-07-29 20:55:00,
2013-07-29 17:00:00,87.8,68.0,30.06,ENE,68,0.0,-999.0,52,0.00,,,0.01,Wunderground v.1.15,2013-07-29 21:00:00,
2013-07-29 17:05:00,87.8,68.0,30.06,ENE,68,0.0,-999.0,52,0.00,,,0.01,Wunderground v.1.15,2013-07-29 21:05:00,
2013-07-29 17:10:00,87.8,68.0,30.06,ENE,68,0.0,-999.0,52,0.00,,,0.01,Wunderground v.1.15,2013-07-29 21:10:00,
2013-07-29 17:15:00,88.0,67.0,30.06,WNW,293,0.0,-999.0,50,0.00,,,0.01,Wunderground v.1.15,2013-07-29 21:15:00,
2013-07-29 17:20:00,88.0,67.0,30.06,WNW,293,0.0,-999.0,50,0.00,,,0.01,Wunderground v.1.15,2013-07-29 21:20:00,
2013-07-29 17:25:00,88.0,67.0,30.06,WNW,293,0.0,-999.0,50,0.00,,,0.01,Wunderground v.1.15,2013-07-29 21:25:00,
2013-07-29 17:30:00,88.0,67.0,30.06,WNW,293,0.0,-999.0,50,0.00,,,0.01,Wunderground v.1.15,2013-07-29 21:30:00,
2013-07-29 17:35:00,88.0,67.0,30.06,WNW,293,0.0,-999.0,50,0.00,,,0.01,Wunderground v.1.15,2013-07-29 21:35:00,
2013-07-29 17:40:00,88.0,67.0,30.06,WNW,293,0.0,-999.0,50,0.00,,,0.01,Wunderground v.1.15,2013-07-29 21:40:00,
2013-07-29 17:45:00,87.7,68.4,30.07,SSE,158,0.0,-999.0,53,0.00,,,0.01,Wunderground v.1.15,2013-07-29 21:45:00,
2013-07-29 17:50:00,87.7,68.4,30.07,SSE,158,0.0,-999.0,53,0.00,,,0.01,Wunderground v.1.15,2013-07-29 21:50:00,
2013-07-29 17:55:00,87.7,68.4,30.07,SSE,158,0.0,-999.0,53,0.00,,,0.01,Wunderground v.1.15,2013-07-29 21:55:00,
2013-07-29 18:00:00,87.7,68.4,30.07,SSE,158,0.0,-999.0,53,0.00,,,0.01,Wunderground v.1.15,2013-07-29 22:00:00,
2013-07-29 18:05:00,87.7,68.4,30.07,SSE,158,0.0,-999.0,53,0.00,,,0.01,Wunderground v.1.15,2013-07-29 22:05:00,
2013-07-29 18:10:00,87.7,68.4,30.07,SSE,158,0.0,-999.0,53,0.00,,,0.01,Wunderground v.1.15,2013-07-29 22:10:00,
2013-07-29 18:15:00,87.7,68.4,30.06,WNW,293,0.0,-999.0,53,0.00,,,0.01,Wunderground v.1.15,2013-07-29 22:15:00,
2013-07-29 18:20:00,87.7,68.4,30.06,WNW,293,0.0,-999.0,53,0.00,,,0.01,Wunderground v.1.15,2013-07-29 22:20:00,
2013-07-29 18:25:00,87.7,68.4,30.06,WNW,293,0.0,-999.0,53,0.00,,,0.01,Wunderground v.1.15,2013-07-29 22:25:00,
2013-07-29 18:30:00,87.7,68.4,30.06,WNW,293,0.0,-999.0,53,0.00,,,0.01,Wunderground v.1.15,2013-07-29 22:30:00,
2013-07-29 18:35:00,87.7,68.4,30.06,WNW,293,0.0,-999.0,53,0.00,,,0.01,Wunderground v.1.15,2013-07-29 22:35:00,
2013-07-29 18:40:00,87.7,68.4,30.06,WNW,293,0.0,-999.0,53,0.00,,,0.01,Wunderground v.1.15,2013-07-29 22:40:00,
2013-07-29 18:45:00,87.7,67.3,30.07,WNW,293,0.0,-999.0,51,0.00,,,0.01,Wunderground v.1.15,2013-07-29 22:45:00,
2013-07-29 18:50:00,87.7,67.3,30.07,WNW,293,0.0,-999.0,51,0.00,,,0.01,Wunderground v.1.15,2013-07-29 22:50:00,
2013-07-29 18:55:00,87.7,67.3,30.07,WNW,293,0.0,-999.0,51,0.00,,,0.01,Wunderground v.1.15,2013-07-29 22:55:00,
2013-07-29 19:00:00,87.7,67.3,30.07,WNW,293,0.0,-999.0,51,0.00,,,0.01,Wunderground v.1.15,2013-07-29 23:00:00,
2013-07-29 19:05:00,87.7,67.3,30.07,WNW,293,0.0,-999.0,51,0.00,,,0.01,Wunderground v.1.15,2013-07-29 23:05:00,
2013-07-29 19:10:00,87.7,67.3,30.07,WNW,293,0.0,-999.0,51,0.00,,,0.01,Wunderground v.1.15,2013-07-29 23:10:00,
2013-07-29 19:15:00,84.9,68.0,30.07,N/A,-737280,0.0,-999.0,57,0.00,,,0.01,Wunderground v.1.15,2013-07-29 23:15:00,
2013-07-29 19:20:00,84.9,68.0,30.07,N/A,-737280,0.0,-999.0,57,0.00,,,0.01,Wunderground v.1.15,2013-07-29 23:20:00,
2013-07-29 19:25:00,84.9,68.0,30.07,N/A,-737280,0.0,-999.0,57,0.00,,,0.01,Wunderground v.1.15,2013-07-29 23:25:00,
2013-07-29 19:30:00,84.9,68.0,30.07,N/A,-737280,0.0,-999.0,57,0.00,,,0.01,Wunderground v.1.15,2013-07-29 23:30:00,
2013-07-29 19:35:00,84.9,68.0,30.07,N/A,-737280,0.0,-999.0,57,0.00,,,0.01,Wunderground v.1.15,2013-07-29 23:35:00,
2013-07-29 19:40:00,84.9,68.0,30.07,N/A,-737280,0.0,-999.0,57,0.00,,,0.01,Wunderground v.1.15,2013-07-29 23:40:00,
2013-07-29 19:45:00,81.1,67.8,30.08,N/A,-737280,0.0,-999.0,64,0.00,,,0.01,Wunderground v.1.15,2013-07-29 23:45:00,
2013-07-29 19:50:00,81.1,67.8,30.08,N/A,-737280,0.0,-999.0,64,0.00,,,0.01,Wunderground v.1.15,2013-07-29 23:50:00,
2013-07-29 19:55:00,81.1,67.8,30.08,N/A,-737280,0.0,-999.0,64,0.00,,,0.01,Wunderground v.1.15,2013-07-29 23:55:00,
2013-07-29 20:00:00,81.1,67.8,30.08,N/A,-737280,0.0,-999.0,64,0.00,,,0.01,Wunderground v.1.15,2013-07-30 00:00:00,
2013-07-29 20:05:00,81.1,67.8,30.08,N/A,-737280,0.0,-999.0,64,0.00,,,0.01,Wunderground v.1.15,2013-07-30 00:05:00,
2013-07-29 20:10:00,81.1,67.8,30.08,N/A,-737280,0.0,-999.0,64,0.00,,,0.01,Wunderground v.1.15,2013-07-30 00:10:00,
2013-07-29 20:15:00,78.4,67.4,30.09,N/A,-737280,0.0,-999.0,69,0.00,,,0.01,Wunderground v.1.15,2013-07-30 00:15:00,
2013-07-29 20:20:00,78.4,67.4,30.09,N/A,-737280,0.0,-999.0,69,0.00,,,0.01,Wunderground v.1.15,2013-07-30 00:20:00,
2013-07-29 20:25:00,78.4,67.4,30.09,N/A,-737280,0.0,-999.0,69,0.00,,,0.01,Wunderground v.1.15,2013-07-30 00:25:00,
2013-07-29 20:30:00,78.4,67.4,30.09,N/A,-737280,0.0,-999.0,69,0.00,,,0.01,Wunderground v.1.15,2013-07-30 00:30:00,
2013-07-29 20:35:00,78.4,67.4,30.09,N/A,-737280,0.0,-999.0,69,0.00,,,0.01,Wunderground v.1.15,2013-07-30 00:35:00,
2013-07-29 20:40:00,78.4,67.4,30.09,N/A,-737280,0.0,-999.0,69,0.00,,,0.01,Wunderground v.1.15,2013-07-30 00:40:00,
2013-07-29 20:45:00,76.2,67.3,30.11,N/A,-737280,0.0,-999.0,74,0.00,,,0.01,Wunderground v.1.15,2013-07-30 00:45:00,
2013-07-29 20:50:00,76.2,67.3,30.11,N/A,-737280,0.0,-999.0,74,0.00,,,0.01,Wunderground v.1.15,2013-07-30 00:50:00,
2013-07-29 20:55:00,76.2,67.3,30.11,N/A,-737280,0.0,-999.0,74,0.00,,,0.01,Wunderground v.1.15,2013-07-30 00:55:00,
2013-07-29 21:00:00,76.2,67.3,30.11,N/A,-737280,0.0,-999.0,74,0.00,,,0.01,Wunderground v.1.15,2013-07-30 01:00:00,
2013-07-29 21:05:00,76.2,67.3,30.11,N/A,-737280,0.0,-999.0,74,0.00,,,0.01,Wunderground v.1.15,2013-07-30 01:05:00,
2013-07-29 21:10:00,76.2,67.3,30.11,N/A,-737280,0.0,-999.0,74,0.00,,,0.01,Wunderground v.1.15,2013-07-30 01:10:00,
2013-07-29 21:15:00,75.8,67.7,30.11,NW,315,0.0,-999.0,76,0.00,,,0.01,Wunderground v.1.15,2013-07-30 01:15:00,
2013-07-29 21:20:00,75.8,67.7,30.11,NW,315,0.0,-999.0,76,0.00,,,0.01,Wunderground v.1.15,2013-07-30 01:20:00,
2013-07-29 21:25:00,75.8,67.7,30.11,NW,315,0.0,-999.0,76,0.00,,,0.01,Wunderground v.1.15,2013-07-30 01:25:00,
2013-07-29 21:30:00,75.8,67.7,30.11,NW,315,0.0,-999.0,76,0.00,,,0.01,Wunderground v.1.15,2013-07-30 01:30:00,
2013-07-29 21:35:00,75.8,67.7,30.11,NW,315,0.0,-999.0,76,0.00,,,0.01,Wunderground v.1.15,2013-07-30 01:35:00,
2013-07-29 21:40:00,75.8,67.7,30.11,NW,315,0.0,-999.0,76,0.00,,,0.01,Wunderground v.1.15,2013-07-30 01:40:00,
2013-07-29 21:45:00,77.0,69.2,30.13,ESE,113,0.0,-999.0,77,0.00,,,0.01,Wunderground v.1.15,2013-07-30 01:45:00,
2013-07-29 21:50:00,77.0,69.2,30.13,ESE,113,0.0,-999.0,77,0.00,,,0.01,Wunderground v.1.15,2013-07-30 01:50:00,
2013-07-29 21:55:00,77.0,69.2,30.13,ESE,113,0.0,-999.0,77,0.00,,,0.01,Wunderground v.1.15,2013-07-30 01:55:00,
2013-07-29 22:00:00,77.0,69.2,30.13,ESE,113,0.0,-999.0,77,0.00,,,0.01,Wunderground v.1.15,2013-07-30 02:00:00,
2013-07-29 22:05:00,77.0,69.2,30.13,ESE,113,0.0,-999.0,77,0.00,,,0.01,Wunderground v.1.15,2013-07-30 02:05:00,
2013-07-29 22:10:00,77.0,69.2,30.13,ESE,113,0.0,-999.0,77,0.00,,,0.01,Wunderground v.1.15,2013-07-30 02:10:00,
2013-07-29 22:15:00,77.0,70.0,30.14,ENE,68,0.0,-999.0,79,0.00,,,0.01,Wunderground v.1.15,2013-07-30 02:15:00,
2013-07-29 22:20:00,77.0,70.0,30.14,ENE,68,0.0,-999.0,79,0.00,,,0.01,Wunderground v.1.15,2013-07-30 02:20:00,
2013-07-29 22:25:00,77.0,70.0,30.14,ENE,68,0.0,-999.0,79,0.00,,,0.01,Wunderground v.1.15,2013-07-30 02:25:00,
2013-07-29 22:30:00,77.0,70.0,30.14,ENE,68,0.0,-999.0,79,0.00,,,0.01,Wunderground v.1.15,2013-07-30 02:30:00,
2013-07-29 22:35:00,77.0,70.0,30.14,ENE,68,0.0,-999.0,79,0.00,,,0.01,Wunderground v.1.15,2013-07-30 02:35:00,
2013-07-29 22:40:00,77.0,70.0,30.14,ENE,68,0.0,-999.0,79,0.00,,,0.01,Wunderground v.1.15,2013-07-30 02:40:00,
2013-07-29 22:45:00,76.4,69.8,30.14,NNE,23,0.0,-999.0,80,0.00,,,0.01,Wunderground v.1.15,2013-07-30 02:45:00,
2013-07-29 22:50:00,76.4,69.8,30.14,NNE,23,0.0,-999.0,80,0.00,,,0.01,Wunderground v.1.15,2013-07-30 02:50:00,
2013-07-29 22:55:00,76.4,69.8,30.14,NNE,23,0.0,-999.0,80,0.00,,,0.01,Wunderground v.1.15,2013-07-30 02:55:00,
2013-07-29 23:00:00,76.4,69.8,30.14,NNE,23,0.0,-999.0,80,0.00,,,0.01,Wunderground v.1.15,2013-07-30 03:00:00,
2013-07-29 23:05:00,76.4,69.8,30.14,NNE,23,0.0,-999.0,80,0.00,,,0.01,Wunderground v.1.15,2013-07-30 03:05:00,
2013-07-29 23:10:00,76.4,69.8,30.14,NNE,23,0.0,-999.0,80,0.00,,,0.01,Wunderground v.1.15,2013-07-30 03:10:00,
2013-07-29 23:15:00,76.0,69.4,30.13,ESE,113,0.0,-999.0,80,0.00,,,0.01,Wunderground v.1.15,2013-07-30 03:15:00,
2013-07-29 23:20:00,76.0,69.4,30.13,ESE,113,0.0,-999.0,80,0.00,,,0.01,Wunderground v.1.15,2013-07-30 03:20:00,
2013-07-29 23:25:00,76.0,69.4,30.13,ESE,113,0.0,-999.0,80,0.00,,,0.01,Wunderground v.1.15,2013-07-30 03:25:00,
2013-07-29 23:30:00,76.0,69.4,30.13,ESE,113,0.0,-999.0,80,0.00,,,0.01,Wunderground v.1.15,2013-07-30 03:30:00,
2013-07-29 23:35:00,76.0,69.4,30.13,ESE,113,0.0,-999.0,80,0.00,,,0.01,Wunderground v.1.15,2013-07-30 03:35:00,
2013-07-29 23:40:00,76.0,69.4,30.13,ESE,113,0.0,-999.0,80,0.00,,,0.01,Wunderground v.1.15,2013-07-30 03:40:00,
2013-07-29 23:45:00,75.5,69.6,30.13,East,90,0.0,-999.0,82,0.00,,,0.01,Wunderground v.1.15,2013-07-30 03:45:00,
2013-07-29 23:50:00,75.5,69.6,30.13,East,90,0.0,-999.0,82,0.00,,,0.01,Wunderground v.1.15,2013-07-30 03:50:00,
2013-07-29 23:55:00,75.5,69.6,30.13,East,90,0.0,-999.0,82,0.00,,,0.01,Wunderground v.1.15,2013-07-30 03:55:00,